Time;durP1;ratioP1;P1;durP2;ratioP2;P2;SDS_P1;SDS_P2;PMS_P1;PMS_P2;Temp;Humidity;BMP_temperature;BMP_pressure;BME280_temperature;BME280_humidity;BME280_pressure;Samples;Min_cycle;Max_cycle;Signal;HPM_P1;HPM_P2
2022/03/20 00:00:13;;;;;;;55.53;19.60;;;0.20;1.00;;;;;;4349130;28;656784;-71
2022/03/20 00:03:04;;;;;;;48.90;19.67;;;0.20;1.00;;;;;;4306998;28;656528;-71
2022/03/20 00:05:52;;;;;;;47.67;19.93;;;0.10;1.00;;;;;;4336949;28;657053;-71
2022/03/20 00:08:41;;;;;;;48.07;17.43;;;0.10;1.00;;;;;;4359721;28;656641;-70
2022/03/20 00:11:29;;;;;;;45.57;18.50;;;0.10;1.00;;;;;;4324249;28;657049;-71
2022/03/20 00:14:17;;;;;;;45.67;18.53;;;0.10;1.00;;;;;;4335225;28;656631;-71
2022/03/20 00:17:04;;;;;;;44.63;18.40;;;0.00;1.00;;;;;;4353610;28;657801;-71
2022/03/20 00:19:52;;;;;;;53.40;22.00;;;0.00;1.00;;;;;;4334247;28;657358;-71
2022/03/20 00:22:40;;;;;;;58.20;20.57;;;-0.10;1.00;;;;;;4357866;28;656534;-70
2022/03/20 00:25:29;;;;;;;250.17;40.80;;;-0.10;1.00;;;;;;4347961;28;658004;-70
2022/03/20 00:28:18;;;;;;;361.77;60.03;;;0.00;1.00;;;;;;4330653;28;658635;-71
2022/03/20 00:31:05;;;;;;;233.73;53.27;;;0.00;1.00;;;;;;4342535;28;657680;-71
2022/03/20 00:33:53;;;;;;;138.10;41.60;;;0.00;1.00;;;;;;4351553;28;658463;-71
2022/03/20 00:36:40;;;;;;;176.23;51.10;;;0.00;1.00;;;;;;4331238;28;657312;-71
2022/03/20 00:39:28;;;;;;;92.93;31.70;;;-0.10;1.00;;;;;;4346576;28;658501;-71
2022/03/20 00:42:17;;;;;;;82.23;27.77;;;-0.20;1.00;;;;;;4331457;28;657360;-71
2022/03/20 00:45:05;;;;;;;68.37;23.50;;;-0.20;1.00;;;;;;4350416;28;656916;-71
2022/03/20 00:47:53;;;;;;;69.80;23.43;;;-0.20;1.00;;;;;;4322537;28;658975;-71
2022/03/20 00:50:41;;;;;;;48.90;19.40;;;-0.20;1.00;;;;;;4328967;28;657331;-71
2022/03/20 00:53:28;;;;;;;71.40;23.50;;;-0.20;1.00;;;;;;4348028;28;658428;-71
2022/03/20 00:56:16;;;;;;;61.30;21.63;;;-0.20;1.00;;;;;;4326106;28;657456;-71
2022/03/20 00:59:04;;;;;;;73.77;24.40;;;-0.30;1.00;;;;;;4348068;28;658485;-70
2022/03/20 01:01:52;;;;;;;78.93;24.67;;;-0.30;1.00;;;;;;4333972;28;658459;-71
2022/03/20 01:04:39;;;;;;;41.53;17.60;;;-0.40;1.00;;;;;;4345796;28;658736;-71
2022/03/20 01:07:27;;;;;;;52.93;19.80;;;-0.40;1.00;;;;;;4325980;28;658545;-71
2022/03/20 01:10:15;;;;;;;48.83;18.33;;;-0.40;1.00;;;;;;4343895;28;657930;-71
2022/03/20 01:13:02;;;;;;;44.47;17.33;;;-0.40;1.00;;;;;;4325661;28;660064;-71
2022/03/20 01:15:51;;;;;;;41.07;17.23;;;-0.40;1.00;;;;;;4351462;28;658227;-71
2022/03/20 01:18:39;;;;;;;39.25;15.75;;;-0.40;1.00;;;;;;4332609;28;657974;-71
2022/03/20 01:21:26;;;;;;;40.23;15.93;;;-0.40;1.00;;;;;;4335717;28;657609;-71
2022/03/20 01:24:14;;;;;;;41.27;15.97;;;-0.40;1.00;;;;;;4349720;28;658259;-71
2022/03/20 01:27:01;;;;;;;35.15;15.73;;;-0.40;1.00;;;;;;4326165;28;657974;-71
2022/03/20 01:29:49;;;;;;;41.83;15.87;;;-0.50;1.00;;;;;;4343636;28;657763;-71
2022/03/20 01:32:38;;;;;;;42.30;17.50;;;-0.40;1.00;;;;;;4330051;28;657647;-71
2022/03/20 01:35:26;;;;;;;42.10;16.20;;;-0.50;1.00;;;;;;4329112;28;657457;-71
2022/03/20 01:38:18;;;;;;;44.87;16.53;;;-0.60;1.00;;;;;;4348064;28;658542;-71
2022/03/20 01:41:06;;;;;;;37.20;15.15;;;-0.60;1.00;;;;;;4326632;28;657556;-71
2022/03/20 01:43:55;;;;;;;40.38;17.13;;;-0.60;1.00;;;;;;4350951;28;658725;-71
2022/03/20 01:46:42;;;;;;;46.40;17.90;;;-0.60;1.00;;;;;;4322800;28;658671;-71
2022/03/20 01:49:31;;;;;;;38.83;16.97;;;-0.60;1.00;;;;;;4344212;28;657821;-71
2022/03/20 01:52:24;;;;;;;39.10;17.03;;;-0.70;1.00;;;;;;4322735;28;658569;-71
2022/03/20 01:55:12;;;;;;;40.80;16.53;;;-0.70;1.00;;;;;;4306642;28;658324;-71
2022/03/20 01:57:59;;;;;;;46.73;17.87;;;-0.70;1.00;;;;;;4343774;28;657281;-71
2022/03/20 02:00:47;;;;;;;42.23;16.33;;;-0.80;1.00;;;;;;4326319;28;658122;-71
2022/03/20 02:03:34;;;;;;;38.57;17.03;;;-0.80;1.00;;;;;;4344118;28;657429;-71
2022/03/20 02:06:26;;;;;;;49.87;18.07;;;-0.90;1.00;;;;;;4331384;28;657551;-71
2022/03/20 02:09:16;;;;;;;42.13;16.93;;;-0.90;1.00;;;;;;4320567;28;657689;-71
2022/03/20 02:12:04;;;;;;;49.90;18.63;;;-1.00;1.00;;;;;;4306673;28;657754;-71
2022/03/20 02:14:52;;;;;;;49.57;18.37;;;-1.00;1.00;;;;;;4325214;28;658375;-71
2022/03/20 02:17:41;;;;;;;42.60;19.27;;;-1.10;1.00;;;;;;4348373;28;658002;-71
2022/03/20 02:20:29;;;;;;;49.97;19.40;;;-1.10;1.00;;;;;;4323467;28;658189;-71
2022/03/20 02:23:18;;;;;;;58.67;20.10;;;-1.10;1.00;;;;;;4322815;28;657701;-71
2022/03/20 02:26:06;;;;;;;50.40;19.53;;;-1.10;1.00;;;;;;4326856;28;657518;-71
2022/03/20 02:28:53;;;;;;;46.77;18.70;;;-1.10;1.00;;;;;;4354613;28;658344;-69
2022/03/20 02:31:40;;;;;;;58.10;20.67;;;-1.20;1.00;;;;;;4338192;28;657588;-71
2022/03/20 02:34:30;;;;;;;60.00;22.63;;;-1.30;1.00;;;;;;4349578;28;658179;-71
2022/03/20 02:37:19;;;;;;;53.73;20.53;;;-1.30;1.00;;;;;;4329317;28;657907;-71
2022/03/20 02:40:09;;;;;;;51.85;19.77;;;-1.40;1.00;;;;;;4336596;28;658124;-71
2022/03/20 02:42:57;;;;;;;49.57;18.30;;;-1.50;1.00;;;;;;4331627;28;658090;-71
2022/03/20 02:45:44;;;;;;;47.20;18.00;;;-1.60;1.00;;;;;;4354165;28;656916;-72
2022/03/20 02:48:32;;;;;;;41.80;17.43;;;-1.60;1.00;;;;;;4331980;28;657543;-71
2022/03/20 02:51:19;;;;;;;42.70;18.03;;;-1.70;1.00;;;;;;4361608;28;657491;-71
2022/03/20 02:54:07;;;;;;;38.43;17.70;;;-1.70;1.00;;;;;;4332771;28;659128;-71
2022/03/20 02:56:57;;;;;;;46.33;18.13;;;-1.70;1.00;;;;;;4354978;28;657220;-71
2022/03/20 02:59:44;;;;;;;46.80;16.93;;;-1.80;1.00;;;;;;4350271;28;657429;-71
2022/03/20 03:02:34;;;;;;;53.07;17.10;;;-1.70;1.00;;;;;;4327365;28;658067;-71
2022/03/20 03:05:23;;;;;;;45.40;17.43;;;-1.70;1.00;;;;;;4326761;28;659129;-71
2022/03/20 03:11:15;;;;;;;44.23;14.83;;;-1.70;1.00;;;;;;4320803;28;658037;-71
2022/03/20 03:15:18;;;;;;;43.73;16.70;;;-1.60;1.00;;;;;;4354672;28;658413;-71
2022/03/20 03:17:12;;;;;;;38.63;16.20;;;-1.50;1.00;;;;;;4318007;28;658275;-71
2022/03/20 03:19:59;;;;;;;40.47;16.80;;;-1.40;1.00;;;;;;4359046;28;657554;-71
2022/03/20 03:22:47;;;;;;;40.03;16.20;;;-1.40;1.00;;;;;;4332211;28;657814;-71
2022/03/20 03:25:34;;;;;;;35.67;16.77;;;-1.30;1.00;;;;;;4348967;28;657245;-71
2022/03/20 03:28:23;;;;;;;43.97;17.27;;;-1.30;1.00;;;;;;4337091;28;658818;-71
2022/03/20 03:31:12;;;;;;;39.10;16.63;;;-1.40;1.00;;;;;;4338904;28;657838;-71
2022/03/20 03:37:06;;;;;;;42.85;16.70;;;-1.30;1.00;;;;;;4321170;28;657224;-71
2022/03/20 03:39:53;;;;;;;47.57;17.40;;;-1.30;1.00;;;;;;4358634;28;658362;-71
2022/03/20 03:42:42;;;;;;;42.07;17.83;;;-1.30;1.00;;;;;;4332401;28;657593;-71
2022/03/20 03:45:29;;;;;;;40.83;17.67;;;-1.40;1.00;;;;;;4358823;28;657425;-71
2022/03/20 03:48:18;;;;;;;48.03;18.83;;;-1.50;1.00;;;;;;4330770;28;657764;-71
2022/03/20 03:51:05;;;;;;;41.47;17.52;;;-1.50;1.00;;;;;;4330889;28;657621;-71
2022/03/20 03:53:53;;;;;;;44.57;19.53;;;-1.60;1.00;;;;;;4356366;28;658128;-71
2022/03/20 03:56:40;;;;;;;41.17;16.53;;;-1.60;1.00;;;;;;4339827;28;657434;-71
2022/03/20 03:59:28;;;;;;;43.53;18.67;;;-1.60;1.00;;;;;;4355411;28;658451;-71
2022/03/20 04:02:15;;;;;;;38.20;17.27;;;-1.60;1.00;;;;;;4335393;28;657159;-71
2022/03/20 04:05:05;;;;;;;45.13;18.30;;;-1.60;1.00;;;;;;4351135;28;658484;-71
2022/03/20 04:07:52;;;;;;;46.75;17.38;;;-1.70;1.00;;;;;;4333999;28;657892;-71
2022/03/20 04:10:40;;;;;;;42.10;18.13;;;-1.70;1.00;;;;;;4350442;28;658210;-71
2022/03/20 04:13:29;;;;;;;48.10;17.87;;;-1.60;1.00;;;;;;4354650;28;658994;-70
2022/03/20 04:16:18;;;;;;;39.27;15.10;;;-1.60;1.00;;;;;;4334618;28;658076;-71
2022/03/20 04:19:05;;;;;;;45.60;17.77;;;-1.60;1.00;;;;;;4335939;28;657362;-70
2022/03/20 04:21:55;;;;;;;52.77;21.17;;;-1.60;1.00;;;;;;4350947;28;658088;-70
2022/03/20 04:24:42;;;;;;;50.23;20.40;;;-1.70;1.00;;;;;;4332168;28;658946;-71
2022/03/20 04:27:30;;;;;;;44.50;17.17;;;-1.70;1.00;;;;;;4351940;28;657454;-70
2022/03/20 04:30:18;;;;;;;45.00;18.53;;;-1.80;1.00;;;;;;4329366;28;657802;-71
2022/03/20 04:33:05;;;;;;;47.77;18.77;;;-1.80;1.00;;;;;;4347058;28;657683;-70
2022/03/20 04:35:53;;;;;;;49.73;18.10;;;-1.90;1.00;;;;;;4355343;28;658203;-70
2022/03/20 04:38:43;;;;;;;45.70;19.27;;;-1.80;1.00;;;;;;4333739;28;657674;-70
2022/03/20 16:08:28;;;;;;;29.43;11.83;;;15.00;99.90;;;;;;3617306;28;658766;-70
2022/03/20 16:11:16;;;;;;;31.97;13.33;;;13.80;99.90;;;;;;4309935;28;659660;-69
2022/03/20 16:14:04;;;;;;;29.00;13.63;;;13.10;99.90;;;;;;4341910;28;659176;-70
2022/03/20 16:16:51;;;;;;;30.67;13.50;;;12.40;99.90;;;;;;4330095;28;658718;-68
2022/03/20 16:19:39;;;;;;;28.90;12.03;;;11.80;99.90;;;;;;4347085;28;659084;-68
2022/03/20 16:22:27;;;;;;;33.80;12.57;;;11.20;1.00;;;;;;4326680;28;658856;-68
2022/03/20 16:28:33;;;;;;;37.07;15.07;;;10.30;99.90;;;;;;4304106;28;658986;-70
2022/03/20 16:31:23;;;;;;;37.73;15.27;;;9.90;99.90;;;;;;4305997;28;658701;-70
2022/03/20 16:34:10;;;;;;;42.23;16.40;;;9.40;99.90;;;;;;4337174;28;657649;-70
2022/03/20 16:36:59;;;;;;;38.67;15.53;;;9.10;99.90;;;;;;4354655;28;658175;-70
2022/03/20 16:39:46;;;;;;;32.20;12.53;;;8.80;99.90;;;;;;4331126;28;657941;-68
2022/03/20 16:42:35;;;;;;;30.80;12.43;;;8.40;99.90;;;;;;4363001;28;657848;-70
2022/03/20 16:45:24;;;;;;;26.80;11.33;;;8.10;99.90;;;;;;4337093;28;658956;-70
2022/03/20 16:48:12;;;;;;;28.97;9.57;;;7.80;99.90;;;;;;4341790;28;657636;-69
2022/03/20 16:51:00;;;;;;;22.57;8.87;;;7.50;99.90;;;;;;4356890;28;657097;-69
2022/03/20 16:53:47;;;;;;;18.23;8.57;;;7.20;99.90;;;;;;4332244;28;657817;-70
2022/03/20 16:56:35;;;;;;;18.13;8.40;;;7.00;99.90;;;;;;4359088;28;656606;-70
2022/03/20 16:59:24;;;;;;;20.83;8.90;;;6.70;99.90;;;;;;4328738;28;657600;-69
2022/03/20 17:02:12;;;;;;;19.80;8.73;;;6.40;99.90;;;;;;4338342;28;656919;-70
2022/03/20 17:04:59;;;;;;;20.37;8.67;;;6.20;99.90;;;;;;4353574;28;656327;-69
2022/03/20 17:07:47;;;;;;;16.20;7.17;;;6.00;99.90;;;;;;4333529;28;656498;-69
2022/03/20 17:10:35;;;;;;;17.83;8.20;;;5.80;1.00;;;;;;4353520;28;656295;-69
2022/03/20 17:13:23;;;;;;;16.58;7.65;;;5.70;1.00;;;;;;4329146;28;656264;-69
2022/03/20 17:16:12;;;;;;;21.90;9.67;;;5.50;1.00;;;;;;4337238;28;655189;-69
2022/03/20 17:19:01;;;;;;;28.63;11.70;;;5.40;1.00;;;;;;4353573;28;655187;-69
2022/03/20 17:21:48;;;;;;;28.33;12.47;;;5.30;1.00;;;;;;4346370;28;656883;-67
2022/03/20 17:24:36;;;;;;;29.17;13.03;;;5.20;1.00;;;;;;4335954;28;656721;-69
2022/03/20 17:27:24;;;;;;;34.90;14.53;;;5.10;1.00;;;;;;4351893;28;656849;-69
2022/03/20 17:30:13;;;;;;;38.53;15.23;;;5.00;1.00;;;;;;4323074;28;657531;-69
2022/03/20 17:33:02;;;;;;;42.40;15.70;;;4.80;1.00;;;;;;4336369;28;656829;-69
2022/03/20 17:35:50;;;;;;;37.83;15.67;;;4.80;1.00;;;;;;4341518;28;656384;-69
2022/03/20 17:38:38;;;;;;;39.50;15.17;;;4.70;1.00;;;;;;4351152;28;657979;-69
2022/03/20 17:41:26;;;;;;;38.63;15.13;;;4.60;1.00;;;;;;4330810;28;656846;-69
2022/03/20 17:44:13;;;;;;;39.23;15.07;;;4.50;1.00;;;;;;4349252;28;658151;-69
2022/03/20 17:47:02;;;;;;;54.97;18.63;;;4.40;1.00;;;;;;4330435;28;656694;-69
2022/03/20 17:49:55;;;;;;;87.13;26.93;;;4.30;1.00;;;;;;4356517;28;656153;-69
2022/03/20 17:52:43;;;;;;;84.97;25.03;;;4.20;1.00;;;;;;4334021;28;656997;-69
2022/03/20 17:55:32;;;;;;;60.63;18.30;;;4.10;1.00;;;;;;4327979;28;657418;-69
2022/03/20 17:58:19;;;;;;;69.07;20.17;;;4.10;1.00;;;;;;4349756;28;656757;-69
2022/03/20 18:01:07;;;;;;;67.33;19.43;;;4.00;1.00;;;;;;4324563;28;656826;-69
2022/03/20 18:10:08;;;;;;;86.60;28.42;;;3.90;1.00;;;;;;4323796;28;656886;-69
2022/03/20 18:12:56;;;;;;;79.70;28.50;;;3.80;1.00;;;;;;4334306;28;656999;-69
2022/03/20 18:15:44;;;;;;;79.83;28.60;;;3.80;1.00;;;;;;4352735;28;657034;-69
2022/03/20 18:18:32;;;;;;;78.60;27.97;;;3.80;1.00;;;;;;4328534;28;656795;-69
2022/03/20 18:21:20;;;;;;;69.23;23.03;;;3.80;1.00;;;;;;4348808;28;656650;-69
2022/03/20 18:24:09;;;;;;;67.73;25.23;;;3.80;1.00;;;;;;4328684;28;657068;-69
2022/03/20 18:26:57;;;;;;;69.30;24.90;;;3.80;1.00;;;;;;4322451;28;656175;-69
2022/03/20 18:29:44;;;;;;;70.03;24.50;;;3.80;1.00;;;;;;4352963;28;656283;-69
2022/03/20 18:32:32;;;;;;;62.37;23.17;;;3.80;1.00;;;;;;4328907;28;656434;-69
2022/03/20 18:35:21;;;;;;;59.13;21.77;;;3.80;1.00;;;;;;4349580;28;657103;-68
2022/03/20 18:38:09;;;;;;;68.00;23.10;;;3.80;1.00;;;;;;4328895;28;658044;-68
2022/03/20 18:40:58;;;;;;;61.87;22.37;;;3.80;1.00;;;;;;4327737;28;656606;-69
2022/03/20 18:43:46;;;;;;;49.03;18.67;;;3.80;1.00;;;;;;4344059;28;656954;-69
2022/03/20 18:46:33;;;;;;;45.97;17.27;;;3.80;1.00;;;;;;4427841;28;657604;-78
2022/03/20 18:49:21;;;;;;;52.10;17.70;;;3.80;1.00;;;;;;4335569;28;656372;-78
2022/03/20 18:52:12;;;;;;;54.07;17.93;;;3.80;1.00;;;;;;4345407;28;656976;-79
2022/03/20 18:55:00;;;;;;;69.27;18.90;;;3.80;1.00;;;;;;4317924;28;656722;-77
2022/03/20 18:57:50;;;;;;;55.27;17.00;;;3.80;1.00;;;;;;4341224;28;658106;-78
2022/03/20 19:00:38;;;;;;;54.80;17.77;;;3.80;1.00;;;;;;4322862;28;656577;-78
2022/03/20 19:03:26;;;;;;;54.37;18.43;;;3.70;1.00;;;;;;4332172;28;657869;-78
2022/03/20 19:06:13;;;;;;;60.37;18.43;;;3.70;1.00;;;;;;4357827;28;657322;-78
2022/03/20 19:09:01;;;;;;;43.47;16.00;;;3.70;1.00;;;;;;4330401;28;657126;-78
2022/03/20 19:11:50;;;;;;;53.30;18.63;;;3.70;1.00;;;;;;4345019;28;656919;-77
2022/03/20 19:14:39;;;;;;;53.27;18.30;;;3.70;1.00;;;;;;4322734;28;657954;-77
2022/03/20 19:17:26;;;;;;;73.97;22.47;;;3.70;1.00;;;;;;4331201;28;656701;-77
2022/03/20 19:20:14;;;;;;;84.33;25.77;;;3.60;1.00;;;;;;4351274;28;656931;-79
2022/03/20 19:23:01;;;;;;;86.67;29.37;;;3.50;1.00;;;;;;4338364;28;656615;-79
2022/03/20 19:25:49;;;;;;;87.73;26.50;;;3.50;1.00;;;;;;4351218;28;656651;-78
2022/03/20 19:28:37;;;;;;;89.20;25.60;;;3.40;1.00;;;;;;4334939;28;656785;-78
2022/03/20 19:31:27;;;;;;;83.87;25.30;;;3.40;1.00;;;;;;4353902;28;657686;-77
2022/03/20 19:40:24;;;;;;;60.00;21.17;;;3.30;1.00;;;;;;4337322;28;657014;-68
2022/03/20 19:43:12;;;;;;;54.67;17.63;;;3.30;1.00;;;;;;4327545;28;657669;-68
2022/03/20 19:46:00;;;;;;;46.93;17.13;;;3.20;1.00;;;;;;4350293;28;656467;-69
2022/03/20 19:48:49;;;;;;;55.00;19.33;;;3.20;1.00;;;;;;4330501;28;657649;-68
2022/03/20 19:51:36;;;;;;;48.60;19.67;;;3.10;1.00;;;;;;4329435;28;656934;-69
2022/03/20 19:54:25;;;;;;;57.83;18.47;;;3.20;1.00;;;;;;4359052;28;657852;-68
2022/03/20 19:57:12;;;;;;;53.53;19.27;;;3.10;1.00;;;;;;4335227;28;657859;-69
2022/03/20 20:00:00;;;;;;;50.90;18.80;;;3.10;1.00;;;;;;4357324;28;656815;-68
2022/03/20 20:02:48;;;;;;;55.60;17.50;;;3.10;1.00;;;;;;4345687;28;658211;-68
2022/03/20 20:05:37;;;;;;;45.40;17.03;;;3.20;1.00;;;;;;4329465;28;657392;-68
2022/03/20 20:08:25;;;;;;;43.30;17.13;;;3.20;1.00;;;;;;4339415;28;656533;-69
2022/03/20 20:11:12;;;;;;;42.57;16.80;;;3.20;1.00;;;;;;4310704;28;658128;-69
2022/03/20 20:17:03;;;;;;;40.13;16.33;;;3.20;1.00;;;;;;4288736;28;657705;-68
2022/03/20 20:19:52;;;;;;;42.58;17.50;;;3.30;1.00;;;;;;4322790;28;656564;-68
2022/03/20 20:22:42;;;;;;;44.10;16.67;;;3.30;1.00;;;;;;4339773;28;656701;-69
2022/03/20 20:25:32;;;;;;;52.57;19.90;;;3.30;1.00;;;;;;4322186;28;656478;-68
2022/03/20 20:28:22;;;;;;;50.57;19.33;;;3.40;1.00;;;;;;4349390;28;656696;-68
2022/03/20 20:31:10;;;;;;;54.27;19.87;;;3.30;1.00;;;;;;4362674;28;656430;-68
2022/03/20 20:33:59;;;;;;;45.73;17.43;;;3.20;1.00;;;;;;4337469;28;657521;-68
2022/03/20 20:36:47;;;;;;;40.77;15.63;;;3.10;1.00;;;;;;4332693;28;656966;-68
2022/03/20 20:39:36;;;;;;;39.43;15.83;;;3.10;1.00;;;;;;4349109;28;656647;-68
2022/03/20 20:42:24;;;;;;;50.47;18.40;;;3.10;1.00;;;;;;4332726;28;657725;-69
2022/03/20 20:45:12;;;;;;;47.57;17.93;;;3.00;1.00;;;;;;4335575;28;656433;-68
2022/03/20 20:47:59;;;;;;;49.43;18.13;;;3.00;1.00;;;;;;4354665;28;656561;-68
2022/03/20 20:50:47;;;;;;;43.00;17.90;;;3.00;1.00;;;;;;4331590;28;656442;-68
2022/03/20 20:53:35;;;;;;;39.57;16.93;;;2.90;1.00;;;;;;4352263;28;656321;-68
2022/03/20 20:56:24;;;;;;;44.37;17.77;;;2.90;1.00;;;;;;4335662;28;658684;-68
2022/03/20 20:59:12;;;;;;;40.80;16.47;;;2.90;1.00;;;;;;4337469;28;656709;-68
2022/03/20 21:02:01;;;;;;;45.60;16.43;;;2.90;1.00;;;;;;4358450;28;656795;-68
2022/03/20 21:04:49;;;;;;;40.57;16.67;;;2.90;1.00;;;;;;4332478;28;657850;-68
2022/03/20 21:10:56;;;;;;;46.50;18.50;;;2.90;1.00;;;;;;4291450;28;656920;-68
2022/03/20 21:13:45;;;;;;;50.53;18.93;;;2.80;1.00;;;;;;4313577;28;657236;-68
2022/03/20 21:16:34;;;;;;;46.57;17.70;;;2.70;1.00;;;;;;4322083;28;657524;-68
2022/03/20 21:19:24;;;;;;;43.67;17.50;;;2.70;1.00;;;;;;4320740;28;656973;-68
2022/03/20 21:22:11;;;;;;;48.30;18.33;;;2.60;1.00;;;;;;4311509;28;656657;-68
2022/03/20 21:24:59;;;;;;;46.03;18.83;;;2.60;1.00;;;;;;4341359;28;657933;-68
2022/03/20 21:27:46;;;;;;;52.53;19.25;;;2.60;1.00;;;;;;4315790;28;656343;-68
2022/03/20 21:30:37;;;;;;;57.80;20.93;;;2.50;1.00;;;;;;4317235;28;656223;-68
2022/03/20 21:33:25;;;;;;;49.90;19.55;;;2.50;1.00;;;;;;4334558;28;656897;-68
2022/03/20 21:36:13;;;;;;;54.60;21.10;;;2.40;1.00;;;;;;4314092;28;657000;-68
2022/03/20 21:39:01;;;;;;;56.23;20.53;;;2.40;1.00;;;;;;4320419;28;656529;-68
2022/03/20 21:41:49;;;;;;;48.87;19.77;;;2.30;1.00;;;;;;4340793;28;657923;-68
2022/03/20 21:44:36;;;;;;;62.13;20.87;;;2.30;1.00;;;;;;4312920;28;656490;-68
2022/03/20 21:47:25;;;;;;;68.47;23.47;;;2.20;1.00;;;;;;4340142;28;656970;-68
2022/03/20 21:50:13;;;;;;;65.47;20.23;;;2.20;1.00;;;;;;4316510;28;657457;-68
2022/03/20 21:53:01;;;;;;;46.43;18.50;;;2.20;1.00;;;;;;4313592;28;656527;-68
2022/03/20 21:55:49;;;;;;;49.53;18.50;;;2.10;1.00;;;;;;4332710;28;657963;-68
2022/03/20 21:58:37;;;;;;;49.73;18.83;;;2.10;1.00;;;;;;4314716;28;656625;-68
2022/03/20 22:01:25;;;;;;;49.47;19.23;;;2.00;1.00;;;;;;4333906;28;658442;-68
2022/03/20 22:04:15;;;;;;;46.27;18.23;;;2.00;1.00;;;;;;4316065;28;658052;-68
2022/03/20 22:07:03;;;;;;;51.70;19.20;;;1.90;1.00;;;;;;4315016;28;657912;-68
2022/03/20 22:09:51;;;;;;;48.03;19.23;;;1.90;1.00;;;;;;4313647;28;656673;-68
2022/03/20 22:12:38;;;;;;;48.30;19.13;;;1.90;1.00;;;;;;4331257;28;658113;-68
2022/03/20 22:15:26;;;;;;;51.27;19.70;;;1.80;1.00;;;;;;4326163;28;658225;-68
2022/03/20 22:18:14;;;;;;;59.50;21.83;;;1.80;1.00;;;;;;4337135;28;656836;-68
2022/03/20 22:21:03;;;;;;;52.10;21.50;;;1.80;1.00;;;;;;4317309;28;656380;-68
2022/03/20 22:23:51;;;;;;;46.72;18.08;;;1.80;1.00;;;;;;4313519;28;656718;-68
2022/03/20 22:26:38;;;;;;;46.03;17.80;;;1.70;1.00;;;;;;4343995;28;656814;-68
2022/03/20 22:29:26;;;;;;;57.70;18.77;;;1.70;1.00;;;;;;4316500;28;657432;-68
2022/03/20 22:32:15;;;;;;;54.93;19.77;;;1.60;1.00;;;;;;4337084;28;656548;-68
2022/03/20 22:38:09;;;;;;;48.27;17.90;;;1.60;1.00;;;;;;4289650;28;657416;-68
2022/03/20 22:40:58;;;;;;;54.72;17.33;;;1.50;1.00;;;;;;4313838;28;656369;-68
2022/03/20 22:43:46;;;;;;;55.97;17.17;;;1.40;1.00;;;;;;4314342;28;656477;-68
2022/03/20 22:46:33;;;;;;;61.97;17.07;;;1.40;1.00;;;;;;4342239;28;657500;-68
2022/03/20 22:52:26;;;;;;;47.20;16.80;;;1.40;1.00;;;;;;4296632;28;657309;-68
2022/03/20 22:55:18;;;;;;;48.07;16.40;;;1.40;1.00;;;;;;4336121;28;657350;-68
2022/03/20 22:58:06;;;;;;;47.70;15.87;;;1.40;1.00;;;;;;4295805;28;657250;-68
2022/03/20 23:01:01;;;;;;;42.07;16.40;;;1.40;1.00;;;;;;4338274;28;657738;-68
2022/03/20 23:03:49;;;;;;;46.00;15.97;;;1.40;1.00;;;;;;4318427;28;656431;-68
2022/03/20 23:06:36;;;;;;;42.30;15.75;;;1.40;1.00;;;;;;4308660;28;656346;-68
2022/03/20 23:09:24;;;;;;;39.57;15.07;;;1.30;1.00;;;;;;4352855;28;656884;-68
2022/03/20 23:12:13;;;;;;;52.53;17.17;;;1.30;1.00;;;;;;4321772;28;656480;-68
2022/03/20 23:15:01;;;;;;;42.73;16.07;;;1.30;1.00;;;;;;4328366;28;656450;-68
2022/03/20 23:17:49;;;;;;;45.33;16.92;;;1.30;1.00;;;;;;4354971;28;657558;-68
2022/03/20 23:20:37;;;;;;;47.63;17.13;;;1.30;1.00;;;;;;4339868;28;656525;-68
2022/03/20 23:23:25;;;;;;;52.03;17.70;;;1.40;1.00;;;;;;4353755;28;658183;-68
2022/03/20 23:26:13;;;;;;;47.83;16.08;;;1.30;1.00;;;;;;4332193;28;657984;-68
2022/03/20 23:29:02;;;;;;;57.03;16.53;;;1.30;1.00;;;;;;4342323;28;656716;-68
2022/03/20 23:31:50;;;;;;;51.13;16.17;;;1.30;1.00;;;;;;4355736;28;656504;-68
2022/03/20 23:34:39;;;;;;;51.13;16.87;;;1.20;1.00;;;;;;4320192;28;658345;-68
2022/03/20 23:37:27;;;;;;;42.43;16.13;;;1.10;1.00;;;;;;4332495;28;657607;-68
2022/03/20 23:40:15;;;;;;;48.30;16.53;;;1.10;1.00;;;;;;4361781;28;656892;-68
2022/03/20 23:46:08;;;;;;;45.03;16.40;;;1.00;1.00;;;;;;4325463;28;656927;-68
2022/03/20 23:48:55;;;;;;;46.08;17.20;;;0.90;1.00;;;;;;4309335;28;656689;-68
2022/03/20 23:51:43;;;;;;;47.07;17.10;;;0.80;1.00;;;;;;4343408;28;657282;-68
2022/03/20 23:54:31;;;;;;;45.53;17.30;;;0.80;1.00;;;;;;4337470;28;656731;-68
2022/03/20 23:57:18;;;;;;;50.07;16.90;;;0.70;1.00;;;;;;4353761;28;656805;-68
